createdAt,value
2022-12-19T00:00:06.193Z,100346.34
2022-12-19T00:02:36.779Z,100331.06
2022-12-19T00:05:04.083Z,100330.25
2022-12-19T00:07:30.930Z,100327.44
2022-12-19T00:09:57.755Z,100335.16
2022-12-19T00:12:24.559Z,100322.50
2022-12-19T00:14:51.988Z,100320.66
2022-12-19T00:17:18.803Z,100315.09
2022-12-19T00:19:45.626Z,100317.88
2022-12-19T00:22:12.457Z,100323.28
2022-12-19T00:24:39.207Z,100318.69
2022-12-19T00:27:06.188Z,100317.56
2022-12-19T00:29:33.701Z,100314.56
2022-12-19T00:32:00.522Z,100308.81
2022-12-19T00:34:27.381Z,100310.75
2022-12-19T00:36:54.210Z,100296.78
2022-12-19T00:39:21.168Z,100302.69
2022-12-19T00:41:47.953Z,100298.91
2022-12-19T00:44:14.824Z,100305.66
2022-12-19T00:46:41.949Z,100296.56
2022-12-19T00:49:08.938Z,100303.13
2022-12-19T00:51:37.294Z,100300.19
2022-12-19T00:54:05.446Z,100293.09
2022-12-19T00:56:37.340Z,100285.66
2022-12-19T00:59:05.089Z,100293.22
2022-12-19T01:01:34.507Z,100287.63
2022-12-19T01:04:27.603Z,100287.25
2022-12-19T01:06:49.688Z,100294.81
2022-12-19T01:09:17.394Z,100283.13
2022-12-19T01:11:47.382Z,100279.81
2022-12-19T01:14:20.812Z,100277.63
2022-12-19T01:16:49.854Z,100277.94
2022-12-19T01:19:16.767Z,100283.06
2022-12-19T01:21:43.604Z,100280.06
2022-12-19T01:24:10.711Z,100277.13
2022-12-19T01:26:37.758Z,100268.84
2022-12-19T01:29:05.137Z,100277.06
2022-12-19T01:31:33.590Z,100278.72
2022-12-19T01:34:01.401Z,100279.00
2022-12-19T01:36:28.405Z,100283.28
2022-12-19T01:38:56.243Z,100270.72
2022-12-19T01:41:23.104Z,100274.66
2022-12-19T01:43:52.996Z,100265.59
2022-12-19T01:46:24.864Z,100269.06
2022-12-19T01:48:54.529Z,100268.53
2022-12-19T01:51:23.222Z,100273.25
2022-12-19T01:53:51.221Z,100274.53
2022-12-19T01:56:20.337Z,100270.75
2022-12-19T01:58:48.469Z,100278.66
2022-12-19T02:01:17.325Z,100266.91
2022-12-19T02:03:45.494Z,100279.94
2022-12-19T02:06:13.910Z,100279.56
2022-12-19T02:08:41.698Z,100276.78
2022-12-19T02:11:08.511Z,100273.75
2022-12-19T02:13:35.484Z,100279.53
2022-12-19T02:16:02.632Z,100278.16
2022-12-19T02:18:37.543Z,100274.34
2022-12-19T02:21:04.768Z,100276.19
2022-12-19T02:23:32.056Z,100265.63
2022-12-19T02:26:04.807Z,100261.81
2022-12-19T02:28:34.771Z,100262.91
2022-12-19T02:31:05.721Z,100256.66
2022-12-19T02:33:46.539Z,100258.28
2022-12-19T02:36:16.435Z,100265.00
2022-12-19T02:38:50.234Z,100262.81
2022-12-19T02:41:20.207Z,100251.28
2022-12-19T02:43:50.756Z,100253.38
2022-12-19T02:46:25.883Z,100251.38
2022-12-19T02:48:53.025Z,100255.19
2022-12-19T02:51:19.911Z,100251.56
2022-12-19T02:53:46.832Z,100260.75
2022-12-19T02:56:16.816Z,100253.47
2022-12-19T02:58:51.321Z,100249.84
2022-12-19T03:01:25.388Z,100252.13
2022-12-19T03:03:54.219Z,100258.06
2022-12-19T03:06:24.121Z,100267.63
2022-12-19T03:08:54.022Z,100252.41
2022-12-19T03:11:22.589Z,100270.06
2022-12-19T03:13:54.486Z,100267.41
2022-12-19T03:16:21.444Z,100275.81
2022-12-19T03:18:48.456Z,100268.88
2022-12-19T03:21:16.710Z,100266.41
2022-12-19T03:23:44.970Z,100274.50
2022-12-19T03:26:15.961Z,100270.88
2022-12-19T03:28:47.506Z,100274.16
2022-12-19T03:31:15.428Z,100270.97
2022-12-19T03:33:43.586Z,100274.63
2022-12-19T03:36:16.133Z,100265.88
2022-12-19T03:38:44.574Z,100281.38
2022-12-19T03:41:11.895Z,100277.69
2022-12-19T03:43:39.964Z,100280.63
2022-12-19T03:46:08.809Z,100284.09
2022-12-19T03:48:38.731Z,100281.44
2022-12-19T03:51:07.030Z,100279.63
2022-12-19T03:53:34.209Z,100287.56
2022-12-19T03:56:08.504Z,100282.09
2022-12-19T03:58:38.611Z,100291.84
2022-12-19T04:01:06.446Z,100294.66
2022-12-19T04:03:33.520Z,100290.19
2022-12-19T04:06:01.681Z,100286.72
2022-12-19T04:08:30.725Z,100289.19
2022-12-19T04:11:01.502Z,100287.38
2022-12-19T04:13:34.167Z,100288.38
2022-12-19T04:16:07.146Z,100288.53
2022-12-19T04:18:34.162Z,100282.44
2022-12-19T04:21:07.420Z,100281.44
2022-12-19T04:23:37.548Z,100287.56
2022-12-19T04:26:05.313Z,100277.81
2022-12-19T04:28:35.313Z,100283.75
2022-12-19T04:31:02.929Z,100284.34
2022-12-19T04:33:29.944Z,100290.47
2022-12-19T04:35:56.759Z,100274.78
2022-12-19T04:38:23.678Z,100276.44
2022-12-19T04:40:50.459Z,100277.25
2022-12-19T04:43:17.498Z,100284.34
2022-12-19T04:45:44.305Z,100285.84
2022-12-19T04:48:11.447Z,100279.72
2022-12-19T04:50:38.318Z,100273.47
2022-12-19T04:53:05.973Z,100271.81
2022-12-19T04:55:32.881Z,100267.97
2022-12-19T04:57:59.666Z,100268.63
2022-12-19T05:00:26.602Z,100268.63
2022-12-19T05:02:53.664Z,100272.09
2022-12-19T05:05:20.693Z,100283.28
2022-12-19T05:07:47.507Z,100278.00
2022-12-19T05:10:14.705Z,100279.00
2022-12-19T05:12:41.562Z,100272.91
2022-12-19T05:15:09.023Z,100287.56
2022-12-19T05:17:35.828Z,100291.22
2022-12-19T05:20:02.637Z,100284.47
2022-12-19T05:22:29.435Z,100292.22
2022-12-19T05:24:56.257Z,100293.47
2022-12-19T05:27:23.093Z,100299.59
2022-12-19T05:29:49.875Z,100297.78
2022-12-19T05:32:16.890Z,100299.41
2022-12-19T05:34:43.898Z,100302.06
2022-12-19T05:37:10.857Z,100297.22
2022-12-19T05:39:37.779Z,100304.16
2022-12-19T05:42:08.484Z,100297.41
2022-12-19T05:44:39.194Z,100299.22
2022-12-19T05:47:06.107Z,100284.03
2022-12-19T05:49:33.055Z,100302.50
2022-12-19T05:51:59.906Z,100299.69
2022-12-19T05:54:26.718Z,100302.16
2022-12-19T05:56:53.524Z,100290.78
2022-12-19T05:59:20.391Z,100284.50
2022-12-19T06:01:48.367Z,100283.84
2022-12-19T06:04:15.335Z,100296.41
2022-12-19T06:06:42.135Z,100294.59
2022-12-19T06:09:08.989Z,100295.75
2022-12-19T06:11:35.819Z,100291.13
2022-12-19T06:14:02.726Z,100277.75
2022-12-19T06:16:29.623Z,100282.19
2022-12-19T06:18:56.512Z,100288.13
2022-12-19T06:21:23.535Z,100289.59
2022-12-19T06:23:50.988Z,100285.16
2022-12-19T06:26:20.334Z,100290.22
2022-12-19T06:28:48.350Z,100276.00
2022-12-19T06:31:15.794Z,100271.56
2022-12-19T06:33:42.814Z,100267.09
2022-12-19T06:36:12.558Z,100254.53
2022-12-19T06:38:39.436Z,100259.81
2022-12-19T06:41:09.548Z,100262.63
2022-12-19T06:43:36.392Z,100238.69
2022-12-19T06:46:03.294Z,100253.50
2022-12-19T06:48:30.226Z,100260.44
2022-12-19T06:50:57.161Z,100259.59
2022-12-19T06:53:24.121Z,100256.16
2022-12-19T06:55:52.641Z,100262.06
2022-12-19T06:58:24.083Z,100251.34
2022-12-19T07:00:51.529Z,100266.97
2022-12-19T07:03:22.049Z,100266.97
2022-12-19T07:05:48.996Z,100264.16
2022-12-19T07:08:15.825Z,100263.16
2022-12-19T07:10:42.759Z,100269.88
2022-12-19T07:13:09.585Z,100280.28
2022-12-19T07:15:36.704Z,100279.13
2022-12-19T07:18:05.661Z,100278.09
2022-12-19T07:20:33.544Z,100286.22
2022-12-19T07:23:00.425Z,100287.88
2022-12-19T07:25:27.271Z,100309.00
2022-12-19T07:27:54.215Z,100300.06
2022-12-19T07:30:21.262Z,100306.16
2022-12-19T07:32:48.080Z,100299.88
2022-12-19T07:35:18.674Z,100315.56
2022-12-19T07:37:45.525Z,100298.50
2022-12-19T07:40:13.697Z,100316.16
2022-12-19T07:42:40.533Z,100310.88
2022-12-19T07:45:07.630Z,100303.59
2022-12-19T07:47:34.457Z,100306.91
2022-12-19T07:50:01.752Z,100298.75
2022-12-19T07:52:28.780Z,100300.22
2022-12-19T07:54:55.708Z,100304.53
2022-12-19T07:57:22.551Z,100291.09
2022-12-19T07:59:49.384Z,100307.78
2022-12-19T08:02:16.738Z,100307.16
2022-12-19T08:04:43.752Z,100308.78
2022-12-19T08:07:10.972Z,100307.78
2022-12-19T08:09:37.919Z,100310.25
2022-12-19T08:12:04.959Z,100309.25
2022-12-19T08:14:31.852Z,100320.66
2022-12-19T08:19:45.693Z,100318.00
2022-12-19T08:22:12.636Z,100314.53
2022-12-19T08:24:39.683Z,100323.47
2022-12-19T08:27:06.540Z,100326.94
2022-12-19T08:29:33.558Z,100322.25
2022-12-19T08:32:00.378Z,100330.41
2022-12-19T08:34:27.335Z,100337.50
2022-12-19T08:36:54.382Z,100346.88
2022-12-19T08:39:21.221Z,100337.13
2022-12-19T08:41:48.291Z,100357.28
2022-12-19T08:44:15.686Z,100350.16
2022-12-19T08:46:48.051Z,100342.25
2022-12-19T08:49:16.920Z,100351.16
2022-12-19T08:51:43.779Z,100338.59
2022-12-19T08:54:11.917Z,100342.06
2022-12-19T08:56:41.545Z,100349.59
2022-12-19T08:59:13.697Z,100342.50
2022-12-19T09:01:42.921Z,100338.88
2022-12-19T09:05:09.617Z,100340.47
2022-12-19T09:06:57.022Z,100340.13
2022-12-19T09:09:23.959Z,100346.25
2022-12-19T09:11:50.888Z,100349.69
2022-12-19T09:14:21.413Z,100345.03
2022-12-19T09:16:48.686Z,100347.50
2022-12-19T09:19:16.718Z,100346.69
2022-12-19T09:21:44.304Z,100347.69
2022-12-19T09:24:11.559Z,100348.50
2022-12-19T09:26:39.610Z,100344.84
2022-12-19T09:29:12.707Z,100352.63
2022-12-19T09:31:47.154Z,100338.56
2022-12-19T09:34:14.285Z,100343.66
2022-12-19T09:36:41.187Z,100347.13
2022-12-19T09:39:08.185Z,100349.75
2022-12-19T09:41:38.149Z,100362.81
2022-12-19T09:44:06.559Z,100365.88
2022-12-19T09:46:40.589Z,100373.66
2022-12-19T09:49:12.785Z,100370.81
2022-12-19T09:51:44.762Z,100371.81
2022-12-19T09:54:13.523Z,100364.06
2022-12-19T09:56:45.462Z,100373.66
2022-12-19T09:59:19.637Z,100363.06
2022-12-19T10:01:54.384Z,100372.66
2022-12-19T10:04:22.283Z,100371.81
2022-12-19T10:07:14.527Z,100375.47
2022-12-19T10:12:10.697Z,100369.75
2022-12-19T10:12:43.926Z,100379.06
2022-12-19T10:15:12.998Z,100374.13
2022-12-19T10:17:43.035Z,100376.75
2022-12-19T10:20:12.983Z,100365.56
2022-12-19T10:22:42.924Z,100367.56
2022-12-19T10:25:10.360Z,100366.13
2022-12-19T10:27:43.998Z,100372.19
2022-12-19T10:30:26.124Z,100376.31
2022-12-19T10:32:57.859Z,100375.94
2022-12-19T10:35:30.300Z,100384.25
2022-12-19T10:38:08.708Z,100372.84
2022-12-19T10:40:38.786Z,100386.91
2022-12-19T10:43:19.183Z,100382.44
2022-12-19T10:45:54.893Z,100383.25
2022-12-19T10:48:31.091Z,100390.19
2022-12-19T10:50:58.569Z,100391.63
2022-12-19T10:53:30.685Z,100391.81
2022-12-19T10:56:00.797Z,100395.47
2022-12-19T10:58:29.048Z,100384.06
2022-12-19T11:00:59.101Z,100376.69
2022-12-19T11:03:26.260Z,100374.84
2022-12-19T11:05:58.175Z,100373.22
2022-12-19T11:08:26.088Z,100370.13
2022-12-19T11:12:28.480Z,100369.28
2022-12-19T11:19:13.730Z,100361.56
2022-12-19T11:21:26.969Z,100354.63
2022-12-19T11:29:16.903Z,100358.28
2022-12-19T11:29:37.481Z,100352.72
2022-12-19T11:29:38.943Z,100357.00
2022-12-19T11:29:41.071Z,100356.63
2022-12-19T11:31:50.985Z,100335.22
2022-12-19T11:33:23.204Z,100337.69
2022-12-19T11:35:52.739Z,100329.56
2022-12-19T11:38:27.440Z,100324.09
2022-12-19T11:40:57.071Z,100325.13
2022-12-19T11:43:43.870Z,100319.81
2022-12-19T11:46:21.487Z,100305.78
2022-12-19T11:48:52.306Z,100307.78
2022-12-19T11:51:22.372Z,100310.44
2022-12-19T11:53:52.317Z,100310.44
2022-12-19T11:56:22.123Z,100309.59
2022-12-19T11:58:50.937Z,100303.31
2022-12-19T12:01:18.422Z,100308.59
2022-12-19T12:04:01.754Z,100306.97
2022-12-19T12:06:32.863Z,100301.66
2022-12-19T12:10:36.857Z,100285.63
2022-12-19T12:17:26.986Z,100283.81
2022-12-19T12:30:34.869Z,100279.16
2022-12-19T12:31:02.482Z,100279.63
2022-12-19T12:31:08.219Z,100274.31
2022-12-19T12:31:18.153Z,100280.44
2022-12-19T12:31:38.740Z,100266.84
2022-12-19T12:31:40.355Z,100270.47
2022-12-19T12:35:29.214Z,100262.53
2022-12-19T12:35:54.204Z,100255.44
2022-12-19T12:38:16.664Z,100264.19
2022-12-19T12:40:25.159Z,100244.88
2022-12-19T12:42:52.544Z,100244.88
2022-12-19T12:45:20.031Z,100230.81
2022-12-19T12:47:49.931Z,100235.13
2022-12-19T12:50:18.886Z,100230.66
2022-12-19T12:52:48.261Z,100231.47
2022-12-19T12:55:24.337Z,100227.81
2022-12-19T12:57:51.528Z,100225.19
2022-12-19T13:00:21.679Z,100215.22
2022-12-19T13:02:51.806Z,100215.22
2022-12-19T13:05:24.811Z,100215.84
2022-12-19T13:07:53.610Z,100221.75
2022-12-19T13:10:24.681Z,100215.94
2022-12-19T13:12:56.655Z,100212.47
2022-12-19T13:15:26.740Z,100203.72
2022-12-19T13:17:54.044Z,100204.16
2022-12-19T13:20:24.093Z,100195.03
2022-12-19T13:23:03.390Z,100190.34
2022-12-19T13:25:31.865Z,100194.81
2022-12-19T13:28:02.151Z,100184.25
2022-12-19T13:30:30.735Z,100181.41
2022-12-19T13:33:00.977Z,100195.63
2022-12-19T13:37:55.655Z,100194.00
2022-12-19T13:39:54.621Z,100191.75
2022-12-19T13:41:24.663Z,100182.00
2022-12-19T13:43:56.454Z,100179.59
2022-12-19T13:46:25.066Z,100177.78
2022-12-19T13:48:54.238Z,100185.69
2022-12-19T13:51:21.262Z,100168.44
2022-12-19T13:53:59.075Z,100168.44
2022-12-19T13:56:30.766Z,100161.91
2022-12-19T13:59:00.023Z,100156.41
2022-12-19T14:01:29.916Z,100169.63
2022-12-19T14:04:07.611Z,100173.09
2022-12-19T14:06:38.543Z,100170.25
2022-12-19T14:11:25.601Z,100162.50
2022-12-19T14:12:28.936Z,100163.72
2022-12-19T14:15:12.330Z,100173.09
2022-12-19T14:17:37.911Z,100166.63
2022-12-19T14:22:02.579Z,100160.31
2022-12-19T14:23:02.550Z,100153.22
2022-12-19T14:28:15.720Z,100155.66
2022-12-19T14:28:30.065Z,100148.53
2022-12-19T14:31:01.143Z,100151.34
2022-12-19T14:33:46.231Z,100169.88
2022-12-19T14:36:26.168Z,100160.94
2022-12-19T14:39:27.195Z,100143.88
2022-12-19T14:41:47.456Z,100148.97
2022-12-19T14:52:11.614Z,100142.47
2022-12-19T14:53:51.637Z,100145.94
2022-12-19T14:54:11.540Z,100136.75
2022-12-19T14:54:55.047Z,100137.19
2022-12-19T14:56:12.353Z,100131.09
2022-12-19T14:58:54.818Z,100127.63
2022-12-19T15:01:11.327Z,100141.03
2022-12-19T15:03:44.815Z,100147.94
2022-12-19T15:07:08.284Z,100152.44
2022-12-19T15:10:57.912Z,100155.88
2022-12-19T15:14:47.270Z,100147.94
2022-12-19T15:15:02.783Z,100144.50
2022-12-19T15:17:29.884Z,100149.78
2022-12-19T15:19:56.768Z,100146.31
2022-12-19T15:22:23.715Z,100159.16
2022-12-19T15:24:50.770Z,100159.78
2022-12-19T15:27:18.027Z,100167.53
2022-12-19T15:29:45.312Z,100173.00
2022-12-19T15:32:15.014Z,100165.28
2022-12-19T15:34:50.751Z,100153.47
2022-12-19T15:37:18.588Z,100159.75
2022-12-19T15:39:45.681Z,100154.63
2022-12-19T15:42:17.838Z,100164.22
2022-12-19T15:44:46.377Z,100167.28
2022-12-19T15:47:17.591Z,100176.06
2022-12-19T15:49:44.554Z,100171.75
2022-12-19T15:52:14.684Z,100170.34
2022-12-19T15:54:50.161Z,100158.09
2022-12-19T15:57:20.849Z,100170.50
2022-12-19T15:59:48.172Z,100161.56
2022-12-19T16:02:17.697Z,100166.03
2022-12-19T16:04:45.947Z,100160.34
2022-12-19T16:07:15.842Z,100152.63
2022-12-19T16:09:42.745Z,100156.09
2022-12-19T16:12:13.899Z,100163.41
2022-12-19T16:14:40.944Z,100162.41
2022-12-19T16:17:12.262Z,100148.16
2022-12-19T16:19:39.260Z,100164.22
2022-12-19T16:22:16.629Z,100167.03
2022-12-19T16:24:44.386Z,100160.75
2022-12-19T16:27:17.988Z,100166.88
2022-12-19T16:29:46.463Z,100161.75
2022-12-19T16:32:14.080Z,100168.88
2022-12-19T16:34:41.005Z,100159.13
2022-12-19T16:37:07.996Z,100160.94
2022-12-19T16:39:35.018Z,100179.25
2022-12-19T16:42:03.654Z,100185.38
2022-12-19T16:44:31.925Z,100166.88
2022-12-19T16:46:58.949Z,100176.44
2022-12-19T16:49:26.062Z,100167.69
2022-12-19T16:51:52.986Z,100172.75
2022-12-19T16:54:20.417Z,100164.81
2022-12-19T16:56:49.500Z,100169.94
2022-12-19T16:59:19.620Z,100173.41
2022-12-19T17:01:47.178Z,100170.94
2022-12-19T17:04:15.297Z,100170.94
2022-12-19T17:06:42.626Z,100173.22
2022-12-19T17:09:13.811Z,100183.59
2022-12-19T17:11:41.238Z,100185.44
2022-12-19T17:14:12.684Z,100183.81
2022-12-19T17:16:39.788Z,100179.34
2022-12-19T17:19:06.768Z,100175.66
2022-12-19T17:21:33.739Z,100175.28
2022-12-19T17:24:00.676Z,100170.81
2022-12-19T17:26:27.733Z,100180.19
2022-12-19T17:28:56.064Z,100186.72
2022-12-19T17:31:24.874Z,100177.78
2022-12-19T17:33:52.167Z,100170.47
2022-12-19T17:36:24.865Z,100174.31
2022-12-19T17:38:53.107Z,100176.13
2022-12-19T17:41:20.004Z,100164.56
2022-12-19T17:43:46.880Z,100157.63
2022-12-19T17:46:16.876Z,100175.53
2022-12-19T17:48:45.556Z,100165.31
2022-12-19T17:51:13.780Z,100156.38
2022-12-19T17:53:40.664Z,100161.31
2022-12-19T17:56:10.180Z,100155.19
2022-12-19T17:58:37.055Z,100161.09
2022-12-19T18:01:04.130Z,100159.25
2022-12-19T18:03:31.438Z,100162.72
2022-12-19T18:05:58.710Z,100172.50
2022-12-19T18:08:28.848Z,100160.09
2022-12-19T18:10:57.770Z,100169.84
2022-12-19T18:13:26.010Z,100169.25
2022-12-19T18:15:53.767Z,100169.25
2022-12-19T18:18:23.030Z,100167.19
2022-12-19T18:20:50.851Z,100165.56
2022-12-19T18:23:19.246Z,100171.66
2022-12-19T18:25:46.781Z,100169.84
2022-12-19T18:28:14.431Z,100179.81
2022-12-19T18:30:41.877Z,100176.13
2022-12-19T18:33:13.766Z,100185.53
2022-12-19T18:35:42.691Z,100181.06
2022-12-19T18:38:12.709Z,100184.53
2022-12-19T18:40:39.690Z,100180.06
2022-12-19T18:43:06.705Z,100188.19
2022-12-19T18:45:36.557Z,100188.38
2022-12-19T18:48:06.342Z,100185.34
2022-12-19T18:50:33.417Z,100185.34
2022-12-19T18:53:00.841Z,100191.66
2022-12-19T18:55:28.713Z,100189.19
2022-12-19T18:57:55.957Z,100193.66
2022-12-19T19:00:24.042Z,100180.25
2022-12-19T19:02:52.677Z,100179.41
2022-12-19T19:05:21.137Z,100178.59
2022-12-19T19:07:48.285Z,100174.31
2022-12-19T19:10:17.385Z,100180.06
2022-12-19T19:12:44.292Z,100191.66
2022-12-19T19:15:11.343Z,100182.72
2022-12-19T19:17:38.352Z,100185.34
2022-12-19T19:20:06.165Z,100191.25
2022-12-19T19:22:33.074Z,100196.53
2022-12-19T19:25:00.112Z,100201.84
2022-12-19T19:27:27.028Z,100191.06
2022-12-19T19:29:53.962Z,100189.84
2022-12-19T19:32:20.809Z,100179.28
2022-12-19T19:34:47.788Z,100190.69
2022-12-19T19:37:15.730Z,100185.59
2022-12-19T19:39:43.001Z,100197.00
2022-12-19T19:42:09.970Z,100183.53
2022-12-19T19:44:36.968Z,100189.81
2022-12-19T19:47:04.053Z,100190.25
2022-12-19T19:49:32.007Z,100209.59
2022-12-19T19:52:02.897Z,100200.41
2022-12-19T19:54:30.824Z,100199.59
2022-12-19T19:56:57.718Z,100190.81
2022-12-19T19:59:24.817Z,100189.00
2022-12-19T20:01:54.651Z,100172.13
2022-12-19T20:04:21.807Z,100175.59
2022-12-19T20:06:48.889Z,100176.59
2022-12-19T20:09:15.873Z,100183.72
2022-12-19T20:11:42.872Z,100172.50
2022-12-19T20:14:09.822Z,100174.31
2022-12-19T20:16:36.845Z,100183.06
2022-12-19T20:19:03.751Z,100196.31
2022-12-19T20:21:31.065Z,100188.19
2022-12-19T20:23:57.923Z,100177.59
2022-12-19T20:26:25.010Z,100188.19
2022-12-19T20:28:52.158Z,100181.44
2022-12-19T20:31:20.026Z,100183.47
2022-12-19T20:33:48.289Z,100187.13
2022-12-19T20:36:16.032Z,100193.88
2022-12-19T20:38:43.232Z,100190.41
2022-12-19T20:41:10.741Z,100168.84
2022-12-19T20:43:38.819Z,100191.00
2022-12-19T20:46:07.961Z,100196.94
2022-12-19T20:48:34.985Z,100192.47
2022-12-19T20:51:02.584Z,100210.78
2022-12-19T20:53:29.514Z,100204.47
2022-12-19T20:55:59.257Z,100197.19
2022-12-19T20:58:27.174Z,100185.78
2022-12-19T21:00:56.243Z,100182.13
2022-12-19T21:03:28.952Z,100182.75
2022-12-19T21:05:57.199Z,100184.78
2022-12-19T21:08:24.528Z,100183.97
2022-12-19T21:10:51.486Z,100181.13
2022-12-19T21:13:18.477Z,100182.56
2022-12-19T21:15:45.579Z,100177.91
2022-12-19T21:18:12.626Z,100161.81
2022-12-19T21:20:39.531Z,100176.06
2022-12-19T21:23:06.372Z,100186.44
2022-12-19T21:25:33.325Z,100166.31
2022-12-19T21:28:00.290Z,100172.22
2022-12-19T21:30:27.263Z,100176.69
2022-12-19T21:32:54.281Z,100177.50
2022-12-19T21:35:21.260Z,100171.63
2022-12-19T21:37:51.541Z,100172.25
2022-12-19T21:40:19.073Z,100178.19
2022-12-19T21:42:46.247Z,100178.84
2022-12-19T21:45:13.731Z,100183.31
2022-12-19T21:47:42.264Z,100165.41
2022-12-19T21:50:10.760Z,100172.34
2022-12-19T21:52:38.111Z,100170.72
2022-12-19T21:55:05.701Z,100158.47
2022-12-19T21:57:32.579Z,100165.59
2022-12-19T21:59:59.408Z,100179.84
2022-12-19T22:02:26.487Z,100172.09
2022-12-19T22:04:53.468Z,100178.41
2022-12-19T22:07:20.363Z,100165.19
2022-12-19T22:09:47.230Z,100168.66
2022-12-19T22:12:14.335Z,100166.81
2022-12-19T22:14:41.406Z,100166.97
2022-12-19T22:17:08.331Z,100158.22
2022-12-19T22:19:35.292Z,100153.72
2022-12-19T22:22:02.162Z,100162.53
2022-12-19T22:24:29.126Z,100155.41
2022-12-19T22:26:56.372Z,100154.75
2022-12-19T22:29:23.367Z,100155.56
2022-12-19T22:31:50.656Z,100143.16
2022-12-19T22:34:19.083Z,100139.53
2022-12-19T22:36:46.590Z,100149.91
2022-12-19T22:39:15.149Z,100148.06
2022-12-19T22:41:42.409Z,100158.47
2022-12-19T22:44:13.279Z,100154.81
2022-12-19T22:46:41.020Z,100147.69
2022-12-19T22:49:09.090Z,100137.94
2022-12-19T22:51:36.944Z,100144.84
2022-12-19T22:54:04.935Z,100138.53
2022-12-19T22:56:32.524Z,100131.59
2022-12-19T22:59:00.447Z,100127.72
2022-12-19T23:01:29.029Z,100131.81
2022-12-19T23:03:57.441Z,100136.28
2022-12-19T23:06:25.899Z,100136.06
2022-12-19T23:08:52.865Z,100127.53
2022-12-19T23:11:21.905Z,100121.00
2022-12-19T23:13:49.030Z,100123.47
2022-12-19T23:16:16.101Z,100131.81
2022-12-19T23:18:43.261Z,100123.06
2022-12-19T23:21:10.615Z,100121.66
2022-12-19T23:23:40.283Z,100115.34
2022-12-19T23:26:15.114Z,100121.66
2022-12-19T23:28:49.793Z,100126.13
2022-12-19T23:31:17.232Z,100132.06
2022-12-19T23:33:44.481Z,100129.19
2022-12-19T23:36:11.375Z,100113.53
2022-12-19T23:38:38.273Z,100103.13
2022-12-19T23:41:06.753Z,100109.59
2022-12-19T23:43:35.100Z,100112.25
2022-12-19T23:46:05.187Z,100117.38
2022-12-19T23:48:32.192Z,100113.72
2022-12-19T23:51:00.374Z,100107.59
2022-12-19T23:53:27.732Z,100112.88
2022-12-19T23:55:54.969Z,100105.94
2022-12-19T23:58:24.646Z,100102.47
